createdAt,value
2019-02-08T00:00:38.883Z,20.30
2019-02-08T00:03:07.874Z,18.25
2019-02-08T00:05:36.324Z,17.30
2019-02-08T00:08:05.718Z,17.95
2019-02-08T00:10:34.171Z,17.62
2019-02-08T00:13:02.612Z,17.98
2019-02-08T00:15:31.104Z,18.85
2019-02-08T00:17:59.590Z,17.40
2019-02-08T00:20:28.055Z,18.42
2019-02-08T00:22:56.550Z,17.92
2019-02-08T00:25:26.707Z,19.37
2019-02-08T00:27:56.268Z,18.05
2019-02-08T00:30:26.242Z,18.10
2019-02-08T00:32:54.721Z,16.77
2019-02-08T00:35:23.935Z,17.48
2019-02-08T00:37:52.536Z,18.25
2019-02-08T00:40:22.486Z,17.15
2019-02-08T00:42:50.943Z,18.95
2019-02-08T00:45:20.635Z,17.85
2019-02-08T00:47:49.134Z,19.15
2019-02-08T00:50:21.703Z,18.87
2019-02-08T00:52:50.292Z,18.07
2019-02-08T00:55:19.387Z,18.85
2019-02-08T00:57:48.383Z,19.40
2019-02-08T01:00:19.067Z,21.60
2019-02-08T01:02:49.130Z,21.45
2019-02-08T01:05:22.014Z,20.95
2019-02-08T01:07:50.600Z,19.50
2019-02-08T01:10:20.918Z,20.55
2019-02-08T01:12:50.071Z,20.45
2019-02-08T01:15:20.955Z,22.27
2019-02-08T01:17:49.431Z,21.68
2019-02-08T01:20:18.942Z,22.32
2019-02-08T01:22:47.447Z,23.98
2019-02-08T01:25:26.680Z,21.30
2019-02-08T01:27:55.767Z,22.22
2019-02-08T01:30:28.795Z,22.25
2019-02-08T01:32:57.235Z,23.70
2019-02-08T01:35:26.522Z,23.85
2019-02-08T01:37:54.992Z,22.52
2019-02-08T01:40:24.914Z,23.57
2019-02-08T01:42:53.399Z,23.18
2019-02-08T01:45:23.328Z,23.38
2019-02-08T01:47:52.467Z,23.07
2019-02-08T01:50:22.560Z,24.35
2019-02-08T01:52:51.106Z,23.42
2019-02-08T01:55:20.407Z,23.85
2019-02-08T01:57:49.460Z,24.70
2019-02-08T02:00:19.383Z,26.30
2019-02-08T02:02:48.571Z,26.82
2019-02-08T02:05:17.812Z,27.30
2019-02-08T02:07:46.216Z,26.90
2019-02-08T02:10:25.127Z,25.32
2019-02-08T02:12:53.598Z,26.27
2019-02-08T02:15:22.601Z,26.15
2019-02-08T02:17:51.091Z,26.85
2019-02-08T02:20:21.059Z,25.85
2019-02-08T02:22:50.103Z,26.95
2019-02-08T02:25:18.559Z,25.02
2019-02-08T02:27:47.059Z,25.27
2019-02-08T02:30:16.979Z,25.32
2019-02-08T02:32:45.442Z,24.95
2019-02-08T02:35:14.429Z,25.57
2019-02-08T02:37:42.914Z,24.77
2019-02-08T02:40:13.138Z,24.05
2019-02-08T02:42:41.720Z,25.50
2019-02-08T02:45:17.671Z,25.40
2019-02-08T02:47:48.182Z,27.50
2019-02-08T02:50:26.701Z,25.60
2019-02-08T02:52:58.687Z,26.73
2019-02-08T02:55:36.056Z,24.80
2019-02-08T02:58:05.889Z,25.97
2019-02-08T03:00:44.909Z,27.52
2019-02-08T03:03:14.317Z,28.00
2019-02-08T03:05:42.868Z,26.70
2019-02-08T03:08:12.507Z,26.95
2019-02-08T03:10:41.342Z,28.45
2019-02-08T03:13:10.701Z,27.98
2019-02-08T03:15:39.184Z,26.68
2019-02-08T03:18:07.645Z,26.87
2019-02-08T03:20:36.248Z,26.62
2019-02-08T03:23:04.734Z,24.57
2019-02-08T03:25:33.306Z,25.02
2019-02-08T03:28:01.756Z,25.68
2019-02-08T03:30:38.575Z,24.40
2019-02-08T03:33:07.049Z,24.05
2019-02-08T03:35:35.629Z,25.12
2019-02-08T03:38:04.316Z,26.75
2019-02-08T03:40:33.821Z,25.10
2019-02-08T03:43:02.342Z,26.70
2019-02-08T03:45:38.380Z,26.75
2019-02-08T03:48:07.663Z,25.70
2019-02-08T03:50:36.082Z,24.82
2019-02-08T03:53:05.670Z,26.80
2019-02-08T03:55:34.172Z,25.30
2019-02-08T03:58:02.628Z,28.75
2019-02-08T04:00:39.711Z,27.07
2019-02-08T04:03:08.277Z,28.25
2019-02-08T04:05:36.755Z,28.65
2019-02-08T04:08:05.339Z,27.95
2019-02-08T04:10:33.825Z,29.35
2019-02-08T04:13:02.222Z,28.32
2019-02-08T04:15:30.783Z,28.05
2019-02-08T04:17:59.276Z,27.42
2019-02-08T04:20:27.734Z,29.35
2019-02-08T04:22:57.016Z,29.87
2019-02-08T04:25:26.510Z,29.48
2019-02-08T04:27:55.746Z,27.65
2019-02-08T04:30:28.078Z,27.82
2019-02-08T04:32:57.318Z,28.45
2019-02-08T04:35:25.721Z,31.45
2019-02-08T04:37:54.876Z,31.35
2019-02-08T04:40:24.847Z,39.15
2019-02-08T04:42:53.299Z,35.63
2019-02-08T04:45:23.000Z,33.83
2019-02-08T04:47:51.445Z,32.35
2019-02-08T04:50:21.491Z,34.30
2019-02-08T04:52:50.526Z,33.28
2019-02-08T04:55:19.076Z,31.57
2019-02-08T04:57:48.370Z,32.33
2019-02-08T05:00:18.392Z,32.83
2019-02-08T05:02:46.878Z,35.15
2019-02-08T05:05:15.354Z,33.05
2019-02-08T05:07:43.902Z,32.70
2019-02-08T05:10:13.859Z,32.83
2019-02-08T05:12:42.334Z,35.45
2019-02-08T05:15:11.268Z,33.85
2019-02-08T05:17:39.759Z,35.83
2019-02-08T05:20:09.723Z,36.08
2019-02-08T05:22:38.175Z,34.40
2019-02-08T05:25:07.419Z,34.92
2019-02-08T05:27:35.917Z,66.20
2019-02-08T05:30:05.851Z,57.15
2019-02-08T05:32:34.308Z,48.42
2019-02-08T05:35:02.842Z,46.42
2019-02-08T05:37:31.343Z,41.70
2019-02-08T05:39:59.786Z,35.30
2019-02-08T05:42:28.244Z,34.13
2019-02-08T05:44:56.704Z,34.65
2019-02-08T05:47:25.268Z,33.35
2019-02-08T05:49:53.750Z,33.15
2019-02-08T05:52:22.236Z,33.98
2019-02-08T05:55:09.975Z,32.98
2019-02-08T05:57:38.435Z,33.75
2019-02-08T06:00:08.343Z,32.25
2019-02-08T06:02:36.851Z,30.70
2019-02-08T06:05:06.782Z,33.83
2019-02-08T06:07:35.337Z,34.95
2019-02-08T06:10:05.355Z,28.98
2019-02-08T06:12:33.835Z,24.77
2019-02-08T06:15:03.162Z,12.25
2019-02-08T06:17:31.611Z,8.10
2019-02-08T06:20:00.061Z,7.03
2019-02-08T06:22:29.247Z,5.28
2019-02-08T06:25:03.290Z,5.80
2019-02-08T06:27:27.796Z,5.65
2019-02-08T06:29:56.275Z,5.30
2019-02-08T06:32:24.722Z,5.03
2019-02-08T06:34:53.167Z,5.47
2019-02-08T06:37:21.659Z,5.55
2019-02-08T06:39:50.101Z,4.95
2019-02-08T06:42:18.555Z,5.08
2019-02-08T06:44:47.040Z,5.62
2019-02-08T06:47:15.479Z,5.30
2019-02-08T06:49:43.925Z,5.05
2019-02-08T06:52:12.412Z,5.55
2019-02-08T06:54:40.864Z,6.17
2019-02-08T06:57:10.901Z,5.85
2019-02-08T06:59:41.017Z,6.08
2019-02-08T07:02:10.990Z,6.05
2019-02-08T07:04:41.003Z,5.90
2019-02-08T07:07:11.070Z,8.23
2019-02-08T07:09:41.598Z,8.38
2019-02-08T07:12:18.067Z,6.00
2019-02-08T07:14:48.493Z,5.08
2019-02-08T07:17:35.305Z,6.20
2019-02-08T07:20:08.188Z,5.70
2019-02-08T07:22:55.001Z,7.05
2019-02-08T07:25:37.784Z,10.00
2019-02-08T07:28:10.805Z,25.20
2019-02-08T07:30:55.670Z,14.13
2019-02-08T07:33:40.875Z,9.35
2019-02-08T07:36:15.636Z,9.00
2019-02-08T07:39:02.686Z,4.35
2019-02-08T07:41:33.884Z,4.85
2019-02-08T07:44:04.768Z,5.00
2019-02-08T07:46:39.906Z,4.40
2019-02-08T07:49:13.913Z,4.55
2019-02-08T07:51:58.846Z,4.97
2019-02-08T07:54:35.660Z,4.55
2019-02-08T07:57:05.782Z,9.00
2019-02-08T07:59:36.410Z,3.50
2019-02-08T08:02:11.958Z,3.42
2019-02-08T08:04:45.154Z,3.55
2019-02-08T08:07:43.531Z,3.17
2019-02-08T08:10:23.072Z,4.67
2019-02-08T08:12:54.317Z,5.05
2019-02-08T08:15:33.141Z,5.33
2019-02-08T08:18:06.538Z,7.90
2019-02-08T08:20:49.356Z,5.57
2019-02-08T08:23:22.753Z,4.30
2019-02-08T08:25:56.112Z,3.67
2019-02-08T08:28:32.206Z,4.53
2019-02-08T08:31:21.577Z,3.80
2019-02-08T08:33:54.468Z,3.40
2019-02-08T08:36:24.482Z,4.00
2019-02-08T08:38:57.567Z,3.57
2019-02-08T08:41:27.588Z,3.90
2019-02-08T08:44:00.697Z,4.33
2019-02-08T08:46:39.599Z,3.27
2019-02-08T08:49:26.600Z,3.70
2019-02-08T08:52:13.631Z,3.67
2019-02-08T08:55:03.104Z,3.93
2019-02-08T08:57:55.855Z,3.50
2019-02-08T09:00:42.665Z,3.10
2019-02-08T09:03:34.086Z,3.57
2019-02-08T09:06:35.027Z,3.80
2019-02-08T09:09:29.723Z,3.57
2019-02-08T09:12:26.159Z,3.57
2019-02-08T09:15:12.975Z,3.27
2019-02-08T09:17:44.829Z,3.20
2019-02-08T09:20:28.895Z,3.77
2019-02-08T09:23:06.346Z,3.33
2019-02-08T09:26:00.275Z,3.37
2019-02-08T09:28:48.222Z,3.03
2019-02-08T09:31:22.959Z,3.20
2019-02-08T09:34:09.894Z,3.40
2019-02-08T09:36:57.876Z,3.57
2019-02-08T09:39:50.341Z,3.43
2019-02-08T09:42:27.957Z,3.60
2019-02-08T09:45:14.825Z,2.93
2019-02-08T09:48:21.104Z,3.33
2019-02-08T09:51:19.730Z,3.23
2019-02-08T09:54:17.194Z,3.20
2019-02-08T09:57:03.758Z,2.40
2019-02-08T09:59:44.233Z,3.53
2019-02-08T10:02:48.916Z,3.70
2019-02-08T10:05:40.270Z,2.90
2019-02-08T10:08:34.324Z,2.60
2019-02-08T10:11:18.050Z,2.00
2019-02-08T10:13:52.407Z,3.03
2019-02-08T10:16:40.549Z,2.30
2019-02-08T10:19:21.092Z,2.67
2019-02-08T10:22:18.345Z,3.00
2019-02-08T10:24:53.008Z,2.73
2019-02-08T10:27:41.302Z,2.93
2019-02-08T10:30:17.422Z,2.40
2019-02-08T10:33:22.725Z,5.87
2019-02-08T10:36:06.407Z,2.80
2019-02-08T10:39:00.745Z,2.20
2019-02-08T10:41:53.519Z,2.50
2019-02-08T10:44:37.307Z,2.33
2019-02-08T10:47:36.079Z,3.13
2019-02-08T10:50:42.264Z,2.30
2019-02-08T10:53:33.284Z,2.20
2019-02-08T10:56:36.481Z,2.70
2019-02-08T10:59:20.224Z,2.30
2019-02-08T11:02:08.332Z,2.40
2019-02-08T11:04:45.739Z,2.23
2019-02-08T11:07:34.119Z,2.37
2019-02-08T11:10:23.680Z,2.27
2019-02-08T11:13:18.289Z,2.13
2019-02-08T11:16:08.295Z,2.43
2019-02-08T11:19:08.339Z,2.50
2019-02-08T11:21:37.222Z,2.30
2019-02-08T11:24:06.516Z,2.30
2019-02-08T11:26:35.351Z,2.20
2019-02-08T11:29:04.331Z,2.13
2019-02-08T11:31:33.383Z,2.10
2019-02-08T11:34:02.296Z,2.03
2019-02-08T11:36:31.458Z,1.80
2019-02-08T11:39:00.340Z,2.00
2019-02-08T11:41:29.174Z,2.00
2019-02-08T11:43:58.011Z,1.90
2019-02-08T11:46:26.892Z,2.00
2019-02-08T11:48:56.061Z,2.13
2019-02-08T11:51:24.890Z,2.23
2019-02-08T11:53:53.769Z,1.80
2019-02-08T11:56:29.714Z,2.40
2019-02-08T11:58:53.211Z,2.60
2019-02-08T12:01:22.404Z,2.00
2019-02-08T12:03:51.296Z,3.40
2019-02-08T12:06:20.187Z,2.70
2019-02-08T12:08:49.180Z,2.00
2019-02-08T12:11:18.212Z,2.20
2019-02-08T12:13:47.046Z,2.87
2019-02-08T12:16:15.972Z,1.77
2019-02-08T12:18:44.846Z,1.70
2019-02-08T12:21:13.840Z,2.40
2019-02-08T12:23:42.980Z,1.40
2019-02-08T12:26:11.930Z,1.30
2019-02-08T12:28:40.920Z,2.63
2019-02-08T12:31:09.811Z,1.30
2019-02-08T12:33:38.695Z,1.60
2019-02-08T12:36:08.931Z,1.73
2019-02-08T12:38:37.814Z,1.70
2019-02-08T12:41:09.877Z,1.40
2019-02-08T12:43:37.229Z,1.23
2019-02-08T12:46:06.126Z,1.30
2019-02-08T12:48:36.498Z,1.53
2019-02-08T12:51:05.531Z,1.37
2019-02-08T12:53:34.364Z,1.93
2019-02-08T12:56:03.247Z,1.83
2019-02-08T12:58:32.196Z,1.53
2019-02-08T13:01:01.054Z,2.20
2019-02-08T13:03:29.936Z,2.50
2019-02-08T13:05:58.785Z,1.83
2019-02-08T13:08:27.624Z,1.30
2019-02-08T13:10:56.876Z,1.50
2019-02-08T13:13:25.767Z,1.53
2019-02-08T13:15:54.588Z,1.60
2019-02-08T13:18:23.549Z,1.50
2019-02-08T13:20:52.441Z,2.10
2019-02-08T13:23:21.760Z,1.80
2019-02-08T13:25:50.733Z,1.37
2019-02-08T13:28:19.727Z,1.60
2019-02-08T13:30:48.552Z,1.57
2019-02-08T13:33:17.429Z,1.40
2019-02-08T13:35:46.266Z,1.20
2019-02-08T13:38:15.187Z,1.70
2019-02-08T13:40:44.386Z,1.20
2019-02-08T13:43:13.254Z,1.30
2019-02-08T13:45:42.167Z,1.40
2019-02-08T13:48:11.057Z,1.30
2019-02-08T13:50:40.050Z,1.43
2019-02-08T13:53:08.947Z,1.57
2019-02-08T13:55:37.832Z,1.27
2019-02-08T13:58:06.928Z,1.60
2019-02-08T14:00:40.835Z,1.10
2019-02-08T14:03:10.059Z,1.43
2019-02-08T14:05:38.826Z,1.50
2019-02-08T14:08:07.510Z,1.80
2019-02-08T14:10:36.188Z,1.87
2019-02-08T14:13:05.537Z,1.53
2019-02-08T14:15:36.008Z,1.00
2019-02-08T14:18:05.533Z,1.07
2019-02-08T14:20:34.408Z,1.93
2019-02-08T14:23:03.310Z,1.30
2019-02-08T14:25:32.304Z,1.40
2019-02-08T14:28:01.105Z,1.37
2019-02-08T14:30:38.977Z,1.63
2019-02-08T14:33:08.753Z,1.40
2019-02-08T14:35:38.600Z,1.40
2019-02-08T14:38:10.417Z,1.20
2019-02-08T14:40:39.788Z,1.43
2019-02-08T14:43:08.708Z,1.40
2019-02-08T14:45:37.641Z,1.00
2019-02-08T14:48:06.676Z,1.10
2019-02-08T14:50:35.556Z,1.70
2019-02-08T14:53:04.579Z,1.30
2019-02-08T14:55:33.023Z,1.47
2019-02-08T14:58:03.284Z,1.17
2019-02-08T15:00:31.732Z,1.20
2019-02-08T15:03:00.181Z,1.23
2019-02-08T15:05:28.669Z,0.70
2019-02-08T15:07:57.721Z,1.33
2019-02-08T15:10:27.870Z,1.37
2019-02-08T15:12:56.359Z,1.60
2019-02-08T15:15:24.835Z,1.17
2019-02-08T15:17:53.288Z,1.00
2019-02-08T15:20:25.934Z,1.20
2019-02-08T15:22:54.381Z,1.67
2019-02-08T15:25:22.931Z,1.00
2019-02-08T15:27:51.417Z,1.50
2019-02-08T15:30:21.306Z,1.53
2019-02-08T15:32:49.795Z,1.77
2019-02-08T15:35:19.580Z,8.40
2019-02-08T15:37:48.060Z,16.57
2019-02-08T15:40:17.975Z,21.20
2019-02-08T15:42:46.482Z,20.80
2019-02-08T15:45:17.751Z,21.07
2019-02-08T15:47:46.410Z,20.13
2019-02-08T15:50:15.064Z,21.70
2019-02-08T15:52:43.615Z,25.40
2019-02-08T15:55:16.256Z,25.00
2019-02-08T15:57:44.706Z,24.27
2019-02-08T16:00:14.621Z,26.70
2019-02-08T16:02:43.209Z,26.00
2019-02-08T16:05:13.399Z,29.30
2019-02-08T16:07:41.862Z,26.80
2019-02-08T16:10:10.611Z,25.40
2019-02-08T16:12:39.107Z,28.40
2019-02-08T16:15:09.035Z,25.37
2019-02-08T16:17:37.496Z,29.00
2019-02-08T16:20:06.883Z,31.20
2019-02-08T16:22:35.343Z,29.13
2019-02-08T16:25:05.259Z,26.80
2019-02-08T16:27:39.779Z,24.87
2019-02-08T16:30:05.308Z,25.20
2019-02-08T16:32:33.780Z,26.80
2019-02-08T16:35:03.172Z,27.60
2019-02-08T16:37:31.635Z,25.00
2019-02-08T16:40:00.194Z,25.67
2019-02-08T16:42:28.778Z,25.50
2019-02-08T16:44:57.263Z,26.47
2019-02-08T16:47:25.715Z,25.23
2019-02-08T16:49:54.172Z,24.43
2019-02-08T16:52:22.672Z,25.00
2019-02-08T16:54:51.115Z,23.50
2019-02-08T16:57:19.667Z,21.30
2019-02-08T16:59:48.226Z,20.95
2019-02-08T17:02:16.726Z,18.53
2019-02-08T17:04:45.463Z,20.77
2019-02-08T17:07:13.960Z,20.65
2019-02-08T17:09:42.420Z,20.12
2019-02-08T17:12:10.917Z,19.20
2019-02-08T17:14:39.372Z,20.75
2019-02-08T17:17:07.828Z,22.33
2019-02-08T17:19:36.322Z,21.80
2019-02-08T17:22:04.767Z,22.40
2019-02-08T17:24:33.259Z,20.27
2019-02-08T17:27:01.706Z,21.67
2019-02-08T17:29:30.151Z,20.00
2019-02-08T17:31:58.650Z,19.82
2019-02-08T17:34:27.314Z,23.02
2019-02-08T17:36:55.752Z,23.52
2019-02-08T17:39:24.349Z,21.97
2019-02-08T17:41:52.820Z,21.10
2019-02-08T17:44:21.276Z,19.17
2019-02-08T17:46:49.772Z,20.23
2019-02-08T17:49:18.230Z,19.15
2019-02-08T17:51:46.912Z,21.10
2019-02-08T17:54:15.429Z,19.85
2019-02-08T17:56:43.960Z,19.12
2019-02-08T17:59:12.413Z,17.75
2019-02-08T18:01:40.911Z,19.23
2019-02-08T18:04:09.374Z,18.67
2019-02-08T18:06:37.831Z,18.17
2019-02-08T18:09:07.135Z,18.60
2019-02-08T18:11:35.696Z,19.32
2019-02-08T18:14:04.709Z,18.35
2019-02-08T18:16:33.795Z,19.27
2019-02-08T18:19:02.264Z,19.55
2019-02-08T18:21:30.714Z,18.45
2019-02-08T18:23:59.203Z,20.85
2019-02-08T18:26:27.668Z,20.37
2019-02-08T18:28:56.110Z,19.37
2019-02-08T18:31:24.607Z,18.92
2019-02-08T18:33:53.051Z,20.05
2019-02-08T18:36:21.503Z,24.67
2019-02-08T18:38:50.000Z,27.52
2019-02-08T18:41:18.450Z,20.80
2019-02-08T18:43:46.938Z,22.00
2019-02-08T18:46:15.391Z,20.82
2019-02-08T18:48:43.838Z,21.48
2019-02-08T18:51:12.347Z,18.67
2019-02-08T18:53:40.839Z,19.15
2019-02-08T18:56:09.293Z,18.98
2019-02-08T18:58:37.750Z,17.50
2019-02-08T19:01:06.445Z,18.12
2019-02-08T19:03:34.894Z,18.90
2019-02-08T19:06:03.456Z,17.77
2019-02-08T19:08:31.954Z,17.55
2019-02-08T19:11:00.419Z,20.27
2019-02-08T19:13:28.861Z,18.90
2019-02-08T19:15:57.309Z,18.37
2019-02-08T19:18:25.852Z,19.95
2019-02-08T19:20:54.297Z,19.52
2019-02-08T19:23:22.741Z,19.92
2019-02-08T19:25:51.229Z,20.00
2019-02-08T19:28:26.387Z,20.48
2019-02-08T19:30:49.785Z,21.97
2019-02-08T19:33:18.268Z,24.10
2019-02-08T19:35:46.720Z,23.02
2019-02-08T19:38:15.167Z,21.65
2019-02-08T19:40:44.762Z,20.90
2019-02-08T19:43:13.829Z,20.55
2019-02-08T19:45:42.351Z,20.80
2019-02-08T19:48:11.350Z,18.98
2019-02-08T19:50:40.696Z,20.90
2019-02-08T19:53:09.247Z,18.10
2019-02-08T19:55:37.964Z,20.15
2019-02-08T19:58:06.911Z,19.60
2019-02-08T20:00:36.259Z,19.70
2019-02-08T20:03:05.950Z,20.32
2019-02-08T20:05:34.436Z,18.77
2019-02-08T20:08:02.864Z,18.80
2019-02-08T20:10:32.832Z,18.82
2019-02-08T20:13:01.313Z,18.57
2019-02-08T20:15:30.613Z,20.37
2019-02-08T20:17:59.132Z,21.60
2019-02-08T20:20:27.881Z,21.07
2019-02-08T20:22:56.322Z,23.45
2019-02-08T20:25:25.817Z,22.67
2019-02-08T20:27:54.266Z,23.95
2019-02-08T20:30:23.881Z,24.82
2019-02-08T20:32:52.475Z,24.32
2019-02-08T20:35:21.931Z,24.92
2019-02-08T20:37:50.582Z,27.95
2019-02-08T20:40:29.519Z,27.77
2019-02-08T20:42:57.968Z,29.82
2019-02-08T20:45:27.419Z,31.37
2019-02-08T20:47:56.142Z,30.70
2019-02-08T20:50:24.695Z,29.32
2019-02-08T20:52:53.345Z,34.60
2019-02-08T20:55:22.236Z,35.05
2019-02-08T20:57:50.693Z,35.03
2019-02-08T21:00:36.377Z,33.50
2019-02-08T21:03:06.527Z,34.05
2019-02-08T21:05:35.140Z,33.70
2019-02-08T21:08:04.495Z,35.50
2019-02-08T21:10:32.943Z,35.03
2019-02-08T21:13:01.434Z,151.15
2019-02-08T21:15:30.201Z,43.58
2019-02-08T21:17:58.652Z,33.18
2019-02-08T21:20:27.740Z,34.20
2019-02-08T21:22:56.262Z,36.20
2019-02-08T21:25:26.382Z,33.92
2019-02-08T21:27:55.037Z,32.30
2019-02-08T21:30:23.483Z,33.78
2019-02-08T21:32:52.131Z,34.25
2019-02-08T21:35:20.735Z,35.88
2019-02-08T21:37:49.475Z,33.30
2019-02-08T21:40:19.404Z,31.73
2019-02-08T21:42:48.128Z,32.48
2019-02-08T21:45:21.013Z,32.45
2019-02-08T21:47:49.463Z,33.42
2019-02-08T21:50:18.915Z,34.27
2019-02-08T21:52:47.407Z,31.15
2019-02-08T21:55:17.160Z,33.70
2019-02-08T21:57:45.615Z,32.15
2019-02-08T22:00:17.987Z,30.43
2019-02-08T22:02:46.434Z,30.08
2019-02-08T22:05:14.997Z,29.87
2019-02-08T22:07:43.474Z,31.33
2019-02-08T22:10:13.223Z,31.00
2019-02-08T22:12:41.711Z,30.72
2019-02-08T22:15:11.769Z,30.20
2019-02-08T22:17:40.211Z,30.35
2019-02-08T22:20:12.866Z,31.55
2019-02-08T22:22:41.315Z,31.27
2019-02-08T22:25:11.167Z,31.20
2019-02-08T22:27:39.659Z,31.30
2019-02-08T22:30:09.570Z,29.90
2019-02-08T22:32:38.059Z,31.25
2019-02-08T22:35:08.346Z,28.50
2019-02-08T22:37:36.802Z,29.70
2019-02-08T22:40:06.760Z,28.60
2019-02-08T22:42:35.217Z,27.82
2019-02-08T22:45:08.952Z,27.60
2019-02-08T22:47:35.289Z,28.70
2019-02-08T22:50:05.211Z,29.45
2019-02-08T22:52:33.673Z,28.50
2019-02-08T22:55:02.178Z,28.35
2019-02-08T22:57:30.639Z,28.07
2019-02-08T22:59:59.084Z,29.23
2019-02-08T23:02:27.567Z,31.48
2019-02-08T23:04:56.027Z,30.77
2019-02-08T23:07:24.521Z,29.92
2019-02-08T23:10:12.246Z,30.62
2019-02-08T23:12:40.694Z,26.87
2019-02-08T23:15:10.144Z,28.70
2019-02-08T23:17:38.634Z,30.77
2019-02-08T23:20:08.675Z,29.37
2019-02-08T23:22:37.168Z,28.17
2019-02-08T23:25:06.120Z,28.92
2019-02-08T23:27:34.585Z,29.65
2019-02-08T23:30:04.551Z,30.62
2019-02-08T23:32:33.005Z,27.93
2019-02-08T23:35:01.452Z,28.07
2019-02-08T23:37:29.956Z,29.65
2019-02-08T23:39:58.423Z,30.02
2019-02-08T23:42:26.862Z,29.40
2019-02-08T23:44:55.360Z,27.32
2019-02-08T23:47:23.854Z,27.95
2019-02-08T23:49:52.349Z,28.12
2019-02-08T23:52:20.832Z,29.30
2019-02-08T23:54:49.273Z,29.70
2019-02-08T23:57:17.717Z,29.55
2019-02-08T23:59:46.200Z,26.77
